A- A+ FrançaisEnglishEspañol中国

Services sur Internet Soldes sur Internet Des idées de cadeaux Météo Météo aéro

La météo à : Autours de vous Tarbes-Lourdes-PyrénéesPau-PyrénéesBiarritz-Bayonne-Anglet Grenoble-Le-Versoud

carte TEMSI

Pour illustration, la carte TEMSI n'est pas mise à jour

La météo aéronautique pour les pilotes, la préparation du vol avec les METAR (METeorological Aerodrome Report, message d'observation des conditions météorologiques pour l'aviation) et Les TAF (Terminal Aerodrome Forecast : message de prévision à court terme des conditions météorologiques pour l'aviation). Et les autres ressources comme les VAC (Visual Approch Chart) et les NOTAM (Notice To Airman) pour préprer les vols.

Aéroport Timimoun (Algérie) / OACI DAUT/ IATA TMX

L'altitude de l'aéroport Timimoun est de 313 m = 1027 ft. Il est situé à proximité de Timimoun (Algérie). La météo générale à 5 jours est disponible pour Adrar situé à 161.4 km.

METAR de l'aéroport Timimoun - DAUT

DAUT 101700Z 01008KT CAVOK 18/M01 Q1022

Décodage du METAR de l'aéroport Timimoun (DZ)

METAR émis par DAUT le mardi 10 décembre 2019 à 17:00 heure TU, il y a 20 minutes.

La visibilité est de supérieure à 10 km = supérieure à 6.2 sm.

La température est de 18°C = 64 °F et le point rosée est de -1°C = 30 °F . Ce qui correspond à 28% d'humidité relative.

Le QNH est de 1022 hPa = 30.18 inHg

Vent de 8 kt = 15 km/h, orienté à 10°.

Pas de nuages.

TAF de l'aéroport Timimoun - DAUT

DAUT 101400Z 1015/1024 04010KT CAVOK

DAUT 101400Z 1015/1024 04010KT visibilité supérieure à 10km, aucun nuage à une hauteur inférieure à 5000 ft ou sous l'altitude minimale de secteur et aucun cumulonimbus ou cumulus bourgeonnant, quelle que soit leur altitude

Aéroport à proximité de Timimoun

Météo générale à 5 jours à Adrar (161.4 km)Aéroport Adrar Touat (162 km)Aéroport Aoulef (255 km)Aéroport Reggen (281 km)Aéroport El Golea (290 km)Aéroport In Salah (311 km)Aéroport Bechar Oukda (357 km)

Vue aérienne de l'aéroport Timimoun

NOTAM de l'aéroport Timimoun

Les NOTAM sont fournis sans aucune garantie de leur actualité. Le pilote est le seul responsable de la vérification de sa validité avant de l'utiliser opérationnellement pour préparer un vol ou l'utiliser lors de sa navigation.

Pas de NOTAM

Sources des données